createdAt,value
2018-12-24T00:02:50.994Z,99.90
2018-12-24T00:12:56.262Z,99.90
2018-12-24T00:23:01.481Z,99.90
2018-12-24T00:33:06.867Z,99.90
2018-12-24T00:43:12.105Z,99.90
2018-12-24T00:53:17.407Z,99.90
2018-12-24T01:03:22.896Z,99.90
2018-12-24T01:13:28.398Z,99.90
2018-12-24T01:23:33.619Z,99.90
2018-12-24T01:33:38.936Z,99.90
2018-12-24T01:43:44.218Z,99.90
2018-12-24T01:53:49.589Z,99.90
2018-12-24T02:03:54.898Z,99.90
2018-12-24T02:14:00.195Z,99.90
2018-12-24T02:24:05.482Z,99.90
2018-12-24T02:34:10.887Z,99.90
2018-12-24T02:44:16.232Z,99.90
2018-12-24T02:54:21.504Z,99.90
2018-12-24T03:04:26.754Z,99.90
2018-12-24T03:14:32.034Z,99.90
2018-12-24T03:24:37.328Z,99.90
2018-12-24T03:34:42.974Z,99.90
2018-12-24T03:44:48.283Z,99.90
2018-12-24T03:54:53.552Z,99.90
2018-12-24T04:04:58.816Z,99.90
2018-12-24T04:15:04.133Z,99.90
2018-12-24T04:25:09.426Z,99.90
2018-12-24T04:35:14.651Z,99.90
2018-12-24T04:45:20.935Z,99.90
2018-12-24T04:55:26.149Z,99.90
2018-12-24T05:05:31.375Z,99.90
2018-12-24T05:15:36.669Z,99.90
2018-12-24T05:25:41.917Z,99.90
2018-12-24T05:35:47.192Z,99.90
2018-12-24T05:45:52.589Z,99.90
2018-12-24T05:55:57.926Z,99.90
2018-12-24T06:06:03.222Z,99.90
2018-12-24T06:16:08.546Z,99.90
2018-12-24T06:26:13.829Z,99.90
2018-12-24T06:36:19.618Z,99.90
2018-12-24T06:46:24.935Z,99.90
2018-12-24T06:56:30.264Z,99.90
2018-12-24T07:06:35.472Z,99.90
2018-12-24T07:16:40.843Z,99.90
2018-12-24T07:26:46.028Z,99.90
2018-12-24T07:36:51.445Z,99.90
2018-12-24T07:46:56.776Z,99.90
2018-12-24T07:57:02.083Z,99.90
2018-12-24T08:07:07.465Z,99.90
2018-12-24T08:17:12.843Z,99.90
2018-12-24T08:27:18.207Z,99.90
2018-12-24T08:37:23.565Z,99.90
2018-12-24T08:47:28.884Z,99.90
2018-12-24T08:57:34.127Z,99.90
2018-12-24T09:07:39.282Z,99.90
2018-12-24T09:17:44.503Z,99.90
2018-12-24T09:27:49.790Z,99.90
2018-12-24T09:37:55.082Z,99.90
2018-12-24T09:48:00.391Z,99.90
2018-12-24T09:58:05.751Z,98.60
2018-12-24T10:08:15.121Z,99.20
2018-12-24T10:18:20.407Z,99.20
2018-12-24T10:28:25.747Z,99.20
2018-12-24T10:38:31.055Z,99.20
2018-12-24T10:48:36.508Z,99.20
2018-12-24T10:58:41.969Z,99.80
2018-12-24T11:08:47.294Z,99.00
2018-12-24T11:18:52.673Z,99.00
2018-12-24T11:28:58.008Z,98.70
2018-12-24T11:39:03.892Z,98.00
2018-12-24T11:49:09.225Z,97.60
2018-12-24T11:59:14.682Z,98.00
2018-12-24T12:09:20.175Z,97.40
2018-12-24T12:19:25.500Z,96.10
2018-12-24T12:29:30.829Z,95.70
2018-12-24T12:39:36.148Z,96.10
2018-12-24T12:49:41.474Z,96.70
2018-12-24T12:59:46.856Z,96.40
2018-12-24T13:09:52.221Z,96.50
2018-12-24T13:19:57.532Z,94.80
2018-12-24T13:30:03.038Z,96.10
2018-12-24T13:40:08.393Z,95.90
2018-12-24T13:50:13.713Z,96.50
2018-12-24T14:00:18.958Z,97.20
2018-12-24T14:10:24.331Z,96.90
2018-12-24T14:20:29.659Z,96.70
2018-12-24T14:30:35.170Z,95.80
2018-12-24T14:40:40.503Z,95.00
2018-12-24T14:50:47.320Z,94.90
2018-12-24T15:00:52.912Z,96.10
2018-12-24T15:10:58.206Z,95.90
2018-12-24T15:21:03.638Z,96.10
2018-12-24T15:31:08.920Z,95.10
2018-12-24T15:41:14.281Z,95.10
2018-12-24T15:51:19.673Z,95.10
2018-12-24T16:01:25.021Z,95.40
2018-12-24T16:11:30.439Z,96.50
2018-12-24T16:21:35.993Z,96.90
2018-12-24T16:31:41.475Z,98.00
2018-12-24T16:41:46.957Z,99.20
2018-12-24T16:51:52.326Z,99.90
2018-12-24T17:01:57.857Z,99.90
2018-12-24T17:12:03.260Z,99.90
2018-12-24T17:22:08.605Z,99.90
2018-12-24T17:32:13.949Z,99.90
2018-12-24T17:42:19.301Z,99.90
2018-12-24T17:52:24.684Z,99.90
2018-12-24T18:02:30.064Z,99.90
2018-12-24T18:12:35.523Z,99.90
2018-12-24T18:22:40.802Z,99.90
2018-12-24T18:32:47.276Z,99.90
2018-12-24T18:42:52.723Z,99.90
2018-12-24T18:52:58.081Z,99.90
2018-12-24T19:03:03.523Z,99.90
2018-12-24T19:13:09.801Z,99.90
2018-12-24T19:23:15.099Z,99.90
2018-12-24T19:33:21.396Z,99.90
2018-12-24T19:43:26.666Z,99.90
2018-12-24T19:53:31.977Z,99.90
2018-12-24T20:03:37.329Z,99.90
2018-12-24T20:13:42.729Z,99.90
2018-12-24T20:23:47.996Z,99.90
2018-12-24T20:33:53.292Z,99.90
2018-12-24T20:43:59.725Z,99.90
2018-12-24T20:54:05.470Z,99.90
2018-12-24T21:04:10.771Z,99.90
2018-12-24T21:14:16.169Z,99.90
2018-12-24T21:24:21.532Z,99.90
2018-12-24T21:34:27.861Z,99.90
2018-12-24T21:44:33.236Z,99.60
2018-12-24T21:54:38.569Z,99.30
2018-12-24T22:04:43.971Z,99.00
2018-12-24T22:14:49.291Z,98.80
2018-12-24T22:24:54.613Z,97.90
2018-12-24T22:35:00.264Z,99.40
2018-12-24T22:45:05.628Z,99.90
2018-12-24T22:55:10.997Z,99.90
2018-12-24T23:05:16.299Z,99.90
2018-12-24T23:15:21.527Z,99.60
2018-12-24T23:25:26.816Z,99.20
2018-12-24T23:35:32.152Z,98.30
2018-12-24T23:45:37.440Z,97.80
2018-12-24T23:55:42.755Z,96.90
